Time;durP1;ratioP1;P1;durP2;ratioP2;P2;SDS_P1;SDS_P2;PMS_P1;PMS_P2;Temp;Humidity;BMP_temperature;BMP_pressure;BME280_temperature;BME280_humidity;BME280_pressure;Samples;Min_cycle;Max_cycle;Signal;HPM_P1;HPM_P2
2022/09/04 00:00:10;;;;;;;3.25;0.40;;;14.60;78.60;;;;;;5047981;28;20371;-43
2022/09/04 00:02:49;;;;;;;3.05;0.70;;;14.60;78.70;;;;;;5047772;28;20045;-43
2022/09/04 00:05:22;;;;;;;2.00;0.68;;;14.60;78.60;;;;;;5047668;28;20067;-44
2022/09/04 00:08:15;;;;;;;2.65;0.50;;;14.60;78.70;;;;;;5047680;28;20615;-43
2022/09/04 00:10:55;;;;;;;4.28;0.57;;;14.60;78.80;;;;;;5048164;28;20145;-43
2022/09/04 00:13:30;;;;;;;3.22;0.50;;;14.50;79.10;;;;;;5047610;28;20067;-46
2022/09/04 00:16:27;;;;;;;1.63;0.60;;;14.50;79.30;;;;;;5047838;28;20068;-43
2022/09/04 00:19:31;;;;;;;2.97;0.55;;;14.50;79.50;;;;;;5039074;28;20048;-47
2022/09/04 00:22:04;;;;;;;3.80;0.60;;;14.30;79.50;;;;;;5043481;28;20099;-45
2022/09/04 00:24:41;;;;;;;2.63;0.45;;;14.50;79.70;;;;;;5047461;28;20554;-43
2022/09/04 00:27:26;;;;;;;4.07;0.50;;;14.50;80.10;;;;;;5047316;28;20044;-43
2022/09/04 00:29:58;;;;;;;2.83;0.52;;;14.30;80.90;;;;;;5046101;28;20064;-44
2022/09/04 00:32:44;;;;;;;3.95;0.52;;;14.50;80.60;;;;;;5047384;28;20041;-43
2022/09/04 00:35:29;;;;;;;6.78;1.17;;;14.20;80.70;;;;;;5047102;28;20516;-44
2022/09/04 00:38:10;;;;;;;2.25;0.60;;;13.90;80.90;;;;;;5045741;28;20045;-43
2022/09/04 00:40:51;;;;;;;1.73;0.65;;;15.00;81.70;;;;;;5046804;28;20130;-43
2022/09/04 00:43:29;;;;;;;3.53;0.70;;;14.00;81.60;;;;;;5046604;28;20044;-44
2022/09/04 00:46:18;;;;;;;2.17;0.70;;;14.60;82.20;;;;;;5047065;28;20049;-44
2022/09/04 00:48:57;;;;;;;2.38;0.70;;;14.50;82.30;;;;;;5047398;28;20079;-44
2022/09/04 00:51:50;;;;;;;2.17;0.50;;;13.90;82.00;;;;;;5046656;28;20088;-44
2022/09/04 00:54:24;;;;;;;5.72;0.65;;;13.90;82.60;;;;;;5046873;28;20056;-43
2022/09/04 00:57:02;;;;;;;1.63;0.60;;;13.80;82.50;;;;;;5046551;28;20513;-44
2022/09/04 00:59:47;;;;;;;4.18;0.80;;;14.10;83.10;;;;;;5046918;28;20045;-43
2022/09/04 01:02:55;;;;;;;2.88;0.50;;;13.70;83.20;;;;;;5047005;28;20084;-43
2022/09/04 01:05:49;;;;;;;2.50;0.60;;;13.70;83.60;;;;;;5046286;28;20075;-43
2022/09/04 01:08:39;;;;;;;3.38;0.70;;;13.70;83.40;;;;;;5046509;28;20040;-44
2022/09/04 01:11:30;;;;;;;6.47;0.95;;;13.70;83.50;;;;;;5046380;28;20049;-42
2022/09/04 01:14:17;;;;;;;4.40;0.90;;;13.70;83.80;;;;;;5046531;28;20119;-43
2022/09/04 01:16:46;;;;;;;3.35;1.63;;;13.70;84.00;;;;;;5046098;28;20491;-43
2022/09/04 01:19:35;;;;;;;2.60;0.90;;;13.60;84.00;;;;;;5046591;28;20045;-42
2022/09/04 01:22:13;;;;;;;3.40;0.93;;;13.60;84.50;;;;;;5042923;28;20230;-43
2022/09/04 01:24:45;;;;;;;3.25;0.82;;;13.50;84.70;;;;;;5046319;28;20048;-43
2022/09/04 01:27:33;;;;;;;2.95;0.95;;;13.40;84.90;;;;;;5046715;28;20552;-45
2022/09/04 01:30:05;;;;;;;2.53;0.70;;;13.70;85.60;;;;;;5046915;28;20064;-43
2022/09/04 01:32:49;;;;;;;4.47;0.80;;;13.40;85.40;;;;;;5047284;28;20044;-43
2022/09/04 01:35:26;;;;;;;4.10;1.02;;;13.40;85.70;;;;;;5047522;28;20049;-43
2022/09/04 01:38:10;;;;;;;3.55;0.60;;;13.30;85.90;;;;;;5047001;28;20033;-42
2022/09/04 01:40:51;;;;;;;3.28;0.65;;;13.30;86.40;;;;;;5046435;28;20088;-43
2022/09/04 01:43:22;;;;;;;1.67;0.60;;;13.30;86.70;;;;;;5046378;28;20041;-44
2022/09/04 01:46:03;;;;;;;4.75;0.90;;;13.00;86.60;;;;;;5045872;28;20041;-42
2022/09/04 01:49:07;;;;;;;1.67;0.82;;;13.20;86.80;;;;;;5045617;28;20041;-42
2022/09/04 01:52:11;;;;;;;3.53;1.15;;;13.20;87.40;;;;;;5046077;28;20053;-42
2022/09/04 01:55:04;;;;;;;2.83;0.98;;;13.20;87.90;;;;;;5041357;28;20155;-43
2022/09/04 01:57:39;;;;;;;2.20;0.98;;;13.20;87.90;;;;;;5045729;28;20051;-43
2022/09/04 02:00:09;;;;;;;3.28;0.70;;;13.10;87.80;;;;;;5046039;28;20045;-43
2022/09/04 02:03:18;;;;;;;2.83;0.70;;;13.10;87.90;;;;;;5045734;28;20045;-42
2022/09/04 02:06:00;;;;;;;3.38;0.70;;;13.10;88.20;;;;;;5045859;28;20087;-43
2022/09/04 02:08:46;;;;;;;;;;;13.20;88.60;;;;;;5046204;28;20041;-43
2022/09/04 02:11:16;;;;;;;4.35;1.05;;;13.00;89.00;;;;;;5049713;28;20388;-42
2022/09/04 02:13:48;;;;;;;4.50;1.05;;;13.80;89.00;;;;;;5050119;28;20086;-43
2022/09/04 02:16:25;;;;;;;2.60;1.17;;;12.80;88.80;;;;;;5049638;28;20118;-43
2022/09/04 02:19:11;;;;;;;5.45;0.90;;;12.90;89.30;;;;;;5050035;28;20075;-42
2022/09/04 02:21:40;;;;;;;2.97;1.00;;;12.90;89.90;;;;;;5049580;28;20046;-43
2022/09/04 02:24:37;;;;;;;3.45;1.00;;;13.00;89.80;;;;;;5049887;28;20040;-43
2022/09/04 02:27:08;;;;;;;2.80;0.95;;;12.80;90.10;;;;;;5049657;28;20487;-43
2022/09/04 02:29:59;;;;;;;4.22;0.90;;;12.80;90.20;;;;;;5049485;28;20045;-43
2022/09/04 02:32:37;;;;;;;2.92;0.98;;;12.70;90.30;;;;;;5049935;28;20138;-43
2022/09/04 02:35:09;;;;;;;4.03;0.98;;;13.50;90.60;;;;;;5050077;28;20260;-42
2022/09/04 02:38:06;;;;;;;2.83;0.90;;;12.60;90.50;;;;;;5049661;28;20367;-42
2022/09/04 02:41:04;;;;;;;3.35;0.82;;;12.70;90.90;;;;;;5049790;28;20456;-43
2022/09/04 02:43:51;;;;;;;10.30;2.00;;;12.60;91.10;;;;;;5049389;28;20522;-43
2022/09/04 02:46:41;;;;;;;6.95;1.15;;;12.60;91.10;;;;;;5049051;28;20478;-43
2022/09/04 02:49:31;;;;;;;6.97;1.75;;;12.60;91.40;;;;;;5049253;28;20048;-42
2022/09/04 02:52:19;;;;;;;6.55;0.95;;;12.50;91.30;;;;;;5049484;28;20032;-44
2022/09/04 02:55:16;;;;;;;4.80;1.00;;;12.50;91.80;;;;;;5049140;28;20041;-42
2022/09/04 02:58:20;;;;;;;4.10;0.98;;;12.40;92.00;;;;;;5049373;28;20090;-42
2022/09/04 03:00:57;;;;;;;3.38;1.08;;;12.40;92.10;;;;;;5049424;28;20049;-42
2022/09/04 03:03:31;;;;;;;3.80;1.00;;;12.40;92.10;;;;;;5049278;28;20525;-42
2022/09/04 03:06:08;;;;;;;4.03;0.98;;;12.30;92.10;;;;;;5049607;28;20087;-42
2022/09/04 03:09:05;;;;;;;6.50;1.02;;;12.30;92.40;;;;;;5047641;28;20395;-42
2022/09/04 03:11:42;;;;;;;4.10;1.23;;;12.30;92.50;;;;;;5045626;28;20060;-43
2022/09/04 03:14:27;;;;;;;3.38;0.80;;;12.30;92.50;;;;;;5048513;28;20486;-42
2022/09/04 03:17:04;;;;;;;4.00;1.48;;;12.30;92.70;;;;;;5048105;28;20087;-42
2022/09/04 03:20:00;;;;;;;2.92;1.10;;;12.20;92.70;;;;;;5048839;28;20053;-43
2022/09/04 03:22:34;;;;;;;3.63;1.42;;;12.20;93.00;;;;;;5048326;28;20056;-44
2022/09/04 03:25:23;;;;;;;2.40;0.80;;;12.90;93.20;;;;;;5048713;28;20041;-43
2022/09/04 03:27:49;;;;;;;5.72;1.20;;;12.20;93.10;;;;;;5048290;28;20510;-43
2022/09/04 03:30:16;;;;;;;4.50;1.30;;;12.00;93.10;;;;;;5048790;28;20076;-44
2022/09/04 03:33:06;;;;;;;3.20;1.05;;;12.10;93.40;;;;;;5048757;28;20382;-44
2022/09/04 03:35:49;;;;;;;6.00;1.10;;;12.10;93.40;;;;;;5049146;28;20074;-44
2022/09/04 03:38:32;;;;;;;5.32;0.85;;;12.00;93.60;;;;;;5048552;28;20391;-42
2022/09/04 03:41:07;;;;;;;4.57;1.30;;;12.00;93.60;;;;;;5048941;28;20489;-42
2022/09/04 03:43:45;;;;;;;6.75;1.02;;;12.00;94.10;;;;;;5048616;28;20044;-43
2022/09/04 03:46:26;;;;;;;5.35;1.40;;;11.90;94.20;;;;;;5048381;28;20098;-44
2022/09/04 03:49:30;;;;;;;4.70;1.30;;;11.90;94.40;;;;;;5047897;28;20484;-46
2022/09/04 03:52:14;;;;;;;4.43;1.55;;;11.90;94.30;;;;;;5035668;28;20052;-45
2022/09/04 03:54:49;;;;;;;3.55;1.20;;;11.80;94.40;;;;;;5048233;28;20116;-47
2022/09/04 03:57:29;;;;;;;5.57;1.33;;;11.80;94.50;;;;;;5048332;28;20120;-43
2022/09/04 04:00:05;;;;;;;3.28;1.77;;;11.80;95.00;;;;;;5048009;28;20121;-46
2022/09/04 04:02:53;;;;;;;7.45;1.52;;;11.80;94.90;;;;;;5048066;28;20048;-43
2022/09/04 04:05:35;;;;;;;4.07;1.20;;;11.80;95.10;;;;;;5047848;28;20580;-44
2022/09/04 04:08:30;;;;;;;4.32;1.55;;;11.80;94.90;;;;;;5047402;28;20076;-45
2022/09/04 04:11:53;;;;;;;4.07;1.38;;;11.80;94.80;;;;;;5047381;28;20073;-43
2022/09/04 04:14:37;;;;;;;4.38;0.90;;;11.80;95.00;;;;;;5024625;28;20168;-44
2022/09/04 04:17:21;;;;;;;6.97;1.50;;;11.70;95.00;;;;;;5024379;28;20061;-43
2022/09/04 04:20:13;;;;;;;3.40;1.10;;;11.70;95.30;;;;;;5040871;28;20135;-42
2022/09/04 04:23:20;;;;;;;2.20;1.15;;;11.70;95.40;;;;;;5047712;28;20047;-44
2022/09/04 04:26:27;;;;;;;5.63;1.42;;;11.70;95.50;;;;;;5047826;28;20041;-45
2022/09/04 04:29:17;;;;;;;4.60;1.88;;;11.50;95.80;;;;;;5036145;28;20517;-42
2022/09/04 04:32:14;;;;;;;4.88;1.15;;;11.70;95.50;;;;;;5047040;28;20048;-42
2022/09/04 04:35:20;;;;;;;3.50;1.10;;;11.70;95.80;;;;;;5047311;28;20045;-43
2022/09/04 04:38:01;;;;;;;3.88;1.17;;;11.70;95.70;;;;;;5035612;28;20049;-43
2022/09/04 04:40:50;;;;;;;3.63;1.40;;;11.70;95.70;;;;;;5047222;28;20558;-44
2022/09/04 04:43:41;;;;;;;3.25;1.27;;;11.70;95.70;;;;;;5046853;28;20548;-43
2022/09/04 04:46:19;;;;;;;5.03;1.58;;;11.70;95.60;;;;;;5046806;28;20052;-43
2022/09/04 04:49:15;;;;;;;3.83;1.67;;;11.60;95.90;;;;;;5047374;28;20059;-47
2022/09/04 04:52:07;;;;;;;4.68;1.70;;;11.60;96.20;;;;;;5047512;28;20052;-44
2022/09/04 04:54:50;;;;;;;3.20;1.40;;;11.50;96.60;;;;;;5047388;28;20033;-43
2022/09/04 04:57:52;;;;;;;4.40;1.33;;;11.40;97.00;;;;;;5047819;28;20037;-43
2022/09/04 05:00:28;;;;;;;5.35;1.40;;;11.40;96.90;;;;;;5028612;28;20103;-42
2022/09/04 05:03:14;;;;;;;5.15;1.40;;;11.40;97.00;;;;;;5047483;28;20041;-46
2022/09/04 05:06:02;;;;;;;4.38;1.73;;;11.40;97.30;;;;;;5047493;28;20134;-44
2022/09/04 05:08:54;;;;;;;2.22;1.42;;;11.50;96.90;;;;;;5046736;28;20517;-43
2022/09/04 05:11:40;;;;;;;5.30;1.73;;;11.50;96.90;;;;;;5046943;28;20505;-43
2022/09/04 05:14:27;;;;;;;2.80;1.40;;;11.70;96.90;;;;;;5046212;28;20040;-43
2022/09/04 05:17:45;;;;;;;3.88;1.65;;;11.60;96.90;;;;;;5046136;28;20057;-43
2022/09/04 05:20:20;;;;;;;4.07;1.42;;;11.60;97.00;;;;;;5040996;28;20056;-42
2022/09/04 05:23:03;;;;;;;4.88;1.67;;;11.70;96.80;;;;;;5046615;28;20462;-44
2022/09/04 05:25:58;;;;;;;6.15;1.25;;;11.70;96.80;;;;;;5046565;28;20677;-43
2022/09/04 05:28:49;;;;;;;5.35;1.60;;;11.90;97.20;;;;;;5046272;28;20053;-43
2022/09/04 05:31:36;;;;;;;4.80;1.48;;;11.70;97.00;;;;;;5046281;28;20476;-43
2022/09/04 05:34:28;;;;;;;9.55;1.85;;;12.60;97.30;;;;;;5045859;28;20041;-43
2022/09/04 05:37:20;;;;;;;7.47;1.67;;;11.70;97.10;;;;;;5046518;28;20048;-43
2022/09/04 05:40:08;;;;;;;6.68;1.70;;;11.80;97.20;;;;;;5046506;28;20094;-42
2022/09/04 05:42:54;;;;;;;5.80;1.60;;;11.80;97.30;;;;;;5046794;28;20111;-42
2022/09/04 05:45:41;;;;;;;9.48;2.15;;;11.90;97.30;;;;;;5046883;28;20052;-44
2022/09/04 05:48:45;;;;;;;4.60;1.55;;;12.00;97.30;;;;;;5046211;28;20044;-44
2022/09/04 05:51:38;;;;;;;5.72;2.00;;;12.10;97.20;;;;;;5037526;28;20057;-43
2022/09/04 05:54:06;;;;;;;4.55;1.65;;;12.40;97.30;;;;;;5046104;28;20051;-43
2022/09/04 05:56:56;;;;;;;4.65;1.55;;;12.90;96.90;;;;;;5046360;28;20133;-43
2022/09/04 05:59:52;;;;;;;6.07;1.73;;;13.20;96.50;;;;;;5046551;28;20413;-47
2022/09/04 06:02:44;;;;;;;4.82;1.55;;;14.60;95.10;;;;;;5046307;28;20074;-43
2022/09/04 06:05:39;;;;;;;9.60;1.85;;;15.60;92.80;;;;;;5035311;28;20131;-43
2022/09/04 06:08:14;;;;;;;7.63;1.92;;;16.80;90.90;;;;;;5046101;28;20048;-43
2022/09/04 06:11:00;;;;;;;6.60;1.60;;;17.60;87.10;;;;;;5046008;28;20037;-42
2022/09/04 06:13:41;;;;;;;8.43;1.65;;;;;;;;;;5045453;28;20049;-42
2022/09/04 06:16:16;;;;;;;4.57;1.40;;;18.60;99.90;;;;;;5045762;28;20061;-46
2022/09/04 06:18:48;;;;;;;4.32;1.52;;;17.90;83.80;;;;;;5046766;28;20045;-43
2022/09/04 06:21:32;;;;;;;3.17;1.25;;;17.30;85.30;;;;;;5046079;28;20064;-43
2022/09/04 06:24:04;;;;;;;3.55;1.00;;;17.00;85.80;;;;;;5046678;28;20084;-44
2022/09/04 06:27:14;;;;;;;5.93;1.25;;;16.90;87.30;;;;;;5046750;28;20041;-44
2022/09/04 06:29:43;;;;;;;2.03;0.82;;;18.30;83.50;;;;;;5023311;28;20053;-43
2022/09/04 06:32:25;;;;;;;7.15;1.20;;;19.50;79.90;;;;;;5023128;28;20120;-42
2022/09/04 06:35:19;;;;;;;3.05;1.10;;;19.90;75.50;;;;;;5037729;28;20099;-44
2022/09/04 06:37:51;;;;;;;3.70;1.25;;;19.40;75.50;;;;;;5037548;28;20045;-44
2022/09/04 06:40:51;;;;;;;4.38;1.10;;;18.80;76.90;;;;;;5044597;28;20059;-43
2022/09/04 06:43:40;;;;;;;6.57;1.17;;;18.20;78.20;;;;;;5036611;28;20049;-44
2022/09/04 06:46:29;;;;;;;2.53;1.00;;;17.80;79.00;;;;;;5045586;28;20056;-42
2022/09/04 06:49:04;;;;;;;3.33;1.38;;;17.40;79.80;;;;;;5046172;28;20122;-43
2022/09/04 06:51:52;;;;;;;4.97;1.52;;;17.20;81.30;;;;;;5046122;28;20376;-43
2022/09/04 06:54:27;;;;;;;3.15;1.60;;;17.10;81.80;;;;;;5045751;28;20076;-47
2022/09/04 06:57:08;;;;;;;3.95;0.98;;;17.00;82.20;;;;;;5048814;28;20045;-44
2022/09/04 06:59:52;;;;;;;4.00;1.83;;;16.90;83.00;;;;;;5049934;28;20170;-44
2022/09/04 07:02:55;;;;;;;4.10;1.70;;;16.90;83.40;;;;;;5049194;28;20053;-42
2022/09/04 07:05:52;;;;;;;3.10;1.15;;;16.90;83.00;;;;;;5049387;28;20098;-42
2022/09/04 07:08:39;;;;;;;3.20;1.48;;;16.80;83.70;;;;;;5049053;28;20548;-43
2022/09/04 07:11:25;;;;;;;9.55;1.33;;;16.90;83.50;;;;;;5047597;28;20102;-43
2022/09/04 07:14:20;;;;;;;7.68;1.67;;;16.90;84.20;;;;;;5049274;28;20045;-43
2022/09/04 07:17:06;;;;;;;2.85;1.73;;;17.00;85.00;;;;;;5049143;28;20080;-43
2022/09/04 07:19:54;;;;;;;7.13;1.40;;;17.00;84.40;;;;;;5044761;28;20435;-43
2022/09/04 07:22:43;;;;;;;4.28;1.48;;;17.10;84.80;;;;;;5049256;28;20117;-43
2022/09/04 07:25:36;;;;;;;5.43;1.63;;;17.20;84.60;;;;;;5048723;28;20076;-43
2022/09/04 07:28:22;;;;;;;4.68;1.50;;;17.20;84.40;;;;;;5048649;28;20048;-45
2022/09/04 07:30:52;;;;;;;3.63;1.55;;;17.30;84.20;;;;;;5048278;28;20134;-43
2022/09/04 07:33:37;;;;;;;2.83;1.42;;;17.30;84.50;;;;;;5048452;28;20095;-44
2022/09/04 07:36:12;;;;;;;5.28;1.50;;;17.40;84.60;;;;;;5048308;28;20875;-43
2022/09/04 07:38:51;;;;;;;3.90;1.45;;;17.50;85.10;;;;;;5048409;28;20122;-43
2022/09/04 07:41:50;;;;;;;5.00;1.67;;;17.60;84.70;;;;;;5048109;28;20582;-43
2022/09/04 07:44:28;;;;;;;4.97;1.10;;;17.50;84.80;;;;;;5047790;28;20044;-44
2022/09/04 07:47:11;;;;;;;6.25;1.15;;;17.90;90.10;;;;;;5048488;28;20053;-43
2022/09/04 07:49:57;;;;;;;3.42;1.33;;;17.90;85.70;;;;;;5048026;28;20048;-45
2022/09/04 07:52:25;;;;;;;6.00;1.42;;;18.00;83.70;;;;;;5048020;28;20380;-45
2022/09/04 07:55:12;;;;;;;5.88;1.58;;;18.20;83.40;;;;;;5048118;28;20343;-43
2022/09/04 07:58:03;;;;;;;5.70;1.70;;;18.30;82.90;;;;;;5047938;28;20049;-43
2022/09/04 08:00:42;;;;;;;4.13;1.65;;;18.40;82.90;;;;;;5043596;28;20148;-44
2022/09/04 08:03:26;;;;;;;4.97;1.33;;;18.50;82.60;;;;;;5047386;28;20395;-44
2022/09/04 08:06:36;;;;;;;5.43;1.42;;;18.70;82.40;;;;;;5047841;28;20051;-44
2022/09/04 08:09:32;;;;;;;3.03;1.45;;;18.90;80.70;;;;;;5047249;28;20371;-43
2022/09/04 08:12:15;;;;;;;2.47;1.13;;;19.00;81.70;;;;;;5047913;28;20049;-43
2022/09/04 08:15:16;;;;;;;4.95;0.95;;;19.20;81.30;;;;;;5047949;28;20045;-43
2022/09/04 08:17:57;;;;;;;5.63;1.02;;;19.80;80.00;;;;;;5047789;28;20106;-43
2022/09/04 08:21:01;;;;;;;5.23;0.93;;;20.30;79.50;;;;;;5048067;28;20053;-43
2022/09/04 08:23:42;;;;;;;2.55;1.02;;;22.40;79.80;;;;;;5047456;28;20354;-49
2022/09/04 08:26:30;;;;;;;3.92;0.90;;;24.40;70.60;;;;;;5047951;28;20048;-42
2022/09/04 08:29:22;;;;;;;6.15;1.25;;;26.20;65.40;;;;;;5048295;28;20125;-45
2022/09/04 08:32:24;;;;;;;6.22;1.27;;;27.60;61.20;;;;;;5049484;28;20052;-59
2022/09/04 08:35:33;;;;;;;6.03;2.15;;;28.70;57.50;;;;;;5048135;28;20132;-60
2022/09/04 08:38:05;;;;;;;3.30;0.93;;;29.10;55.70;;;;;;5028280;28;20053;-59
2022/09/04 08:40:56;;;;;;;4.78;1.02;;;29.50;56.10;;;;;;5047075;28;20044;-59
2022/09/04 08:43:46;;;;;;;5.03;0.82;;;29.40;55.80;;;;;;5048142;28;20124;-59
2022/09/04 08:46:26;;;;;;;3.80;1.02;;;29.60;55.70;;;;;;5046458;28;20045;-60
2022/09/04 08:49:09;;;;;;;1.98;0.70;;;29.90;54.50;;;;;;5047451;28;20091;-60
2022/09/04 08:51:58;;;;;;;4.15;0.63;;;31.00;54.80;;;;;;5052371;28;20037;-60
2022/09/04 08:54:36;;;;;;;2.65;0.63;;;32.00;51.30;;;;;;5050511;28;20059;-60
2022/09/04 08:57:30;;;;;;;4.25;1.13;;;32.90;51.30;;;;;;5049285;28;20073;-61
2022/09/04 09:00:08;;;;;;;4.07;0.73;;;33.50;49.20;;;;;;5052064;28;20040;-60
2022/09/04 09:02:45;;;;;;;2.45;0.50;;;34.10;48.60;;;;;;5051898;28;20064;-60
2022/09/04 09:05:56;;;;;;;4.10;0.60;;;34.60;48.00;;;;;;5049302;28;20041;-60
2022/09/04 09:08:52;;;;;;;3.17;0.90;;;35.20;47.30;;;;;;5042973;28;20571;-61
2022/09/04 09:11:32;;;;;;;3.42;0.80;;;35.80;46.60;;;;;;5049436;28;20037;-60
2022/09/04 09:14:23;;;;;;;1.75;0.55;;;36.00;45.90;;;;;;5049500;28;20045;-60
2022/09/04 09:16:55;;;;;;;2.88;1.00;;;36.20;46.50;;;;;;5048878;28;20068;-60
2022/09/04 09:19:39;;;;;;;;;;;36.20;46.00;;;;;;5047518;28;20491;-60
2022/09/04 09:22:26;;;;;;;5.18;1.00;;;36.60;47.00;;;;;;5049047;28;19994;-60
2022/09/04 09:25:05;;;;;;;2.33;0.65;;;36.60;45.40;;;;;;5046603;28;20052;-60
2022/09/04 09:28:13;;;;;;;2.22;0.65;;;35.90;45.30;;;;;;5047330;28;20526;-60
2022/09/04 09:31:37;;;;;;;1.67;0.60;;;35.10;45.50;;;;;;5047038;28;20051;-60
2022/09/04 09:34:31;;;;;;;1.60;0.50;;;34.10;47.30;;;;;;5007825;28;20053;-61
2022/09/04 09:37:01;;;;;;;2.80;0.73;;;33.50;46.80;;;;;;5024028;28;20494;-61
2022/09/04 09:39:36;;;;;;;1.17;0.50;;;33.40;47.10;;;;;;5043496;28;20052;-60
2022/09/04 09:42:34;;;;;;;2.40;0.50;;;33.50;47.60;;;;;;5048193;28;20045;-60
2022/09/04 09:45:13;;;;;;;5.47;0.70;;;33.20;46.90;;;;;;5047440;28;20074;-50
2022/09/04 09:48:12;;;;;;;2.83;0.60;;;32.90;47.00;;;;;;5047325;28;20120;-47
2022/09/04 09:51:01;;;;;;;0.73;0.30;;;32.50;46.70;;;;;;5046924;28;20055;-51
2022/09/04 09:53:54;;;;;;;3.10;0.55;;;32.10;47.80;;;;;;5036750;28;20053;-52
2022/09/04 09:56:40;;;;;;;1.70;0.70;;;31.60;48.10;;;;;;5046986;28;20047;-49
2022/09/04 09:59:44;;;;;;;2.63;0.70;;;31.00;48.70;;;;;;5046875;28;20159;-50
2022/09/04 10:02:29;;;;;;;3.55;0.50;;;30.80;50.10;;;;;;5042428;28;20081;-50
2022/09/04 10:05:18;;;;;;;2.58;0.60;;;30.70;49.80;;;;;;5046809;28;20094;-47
2022/09/04 10:08:11;;;;;;;2.90;0.60;;;30.60;48.70;;;;;;5046255;28;20053;-51
2022/09/04 10:11:12;;;;;;;4.18;0.40;;;30.10;48.70;;;;;;5046648;28;20064;-47
2022/09/04 10:13:56;;;;;;;;;;;30.00;49.10;;;;;;5047037;28;20076;-53
2022/09/04 10:16:41;;;;;;;1.83;0.40;;;29.90;50.90;;;;;;5045056;28;19967;-52
2022/09/04 10:19:17;;;;;;;7.63;0.60;;;29.80;49.30;;;;;;5045731;28;20069;-52
2022/09/04 10:22:07;;;;;;;4.00;0.60;;;29.80;49.90;;;;;;5045614;28;20040;-53
2022/09/04 10:25:04;;;;;;;3.67;0.60;;;29.80;50.40;;;;;;5045219;28;20504;-52
2022/09/04 10:27:54;;;;;;;1.58;0.30;;;29.90;50.20;;;;;;5045300;28;20049;-48
2022/09/04 10:30:22;;;;;;;5.50;0.65;;;30.20;49.90;;;;;;5046233;28;20071;-51
2022/09/04 10:33:18;;;;;;;2.08;0.32;;;30.30;49.70;;;;;;5049538;28;20088;-49
2022/09/04 10:35:46;;;;;;;3.85;0.50;;;30.40;49.50;;;;;;5049531;28;20589;-48
2022/09/04 10:38:23;;;;;;;1.23;0.40;;;30.50;49.40;;;;;;5049878;28;20041;-47
2022/09/04 10:41:26;;;;;;;3.10;0.50;;;30.30;49.90;;;;;;5049905;28;20045;-49
2022/09/04 10:44:18;;;;;;;1.83;0.40;;;30.00;50.20;;;;;;5049446;28;20114;-48
2022/09/04 10:47:08;;;;;;;2.95;0.40;;;29.50;50.30;;;;;;5049040;28;20495;-49
2022/09/04 10:49:45;;;;;;;1.58;0.50;;;28.90;52.40;;;;;;5048898;28;20052;-51
2022/09/04 10:52:31;;;;;;;3.47;0.50;;;28.50;52.00;;;;;;5049752;28;20044;-47
2022/09/04 10:55:10;;;;;;;5.65;0.30;;;28.10;50.80;;;;;;5050133;28;20087;-47
2022/09/04 10:58:04;;;;;;;3.38;0.40;;;27.70;51.60;;;;;;5050239;28;20387;-47
2022/09/04 11:00:50;;;;;;;3.40;0.43;;;27.40;52.10;;;;;;5050376;28;20106;-47
2022/09/04 11:03:56;;;;;;;3.63;0.45;;;27.20;52.80;;;;;;5050211;28;20048;-47
2022/09/04 11:06:51;;;;;;;3.65;0.38;;;27.20;53.50;;;;;;5037233;28;20391;-46
2022/09/04 11:09:35;;;;;;;1.50;0.40;;;27.10;52.70;;;;;;5039461;28;20448;-46
2022/09/04 11:12:23;;;;;;;2.33;0.30;;;27.00;52.90;;;;;;5048703;28;20054;-51
2022/09/04 11:15:14;;;;;;;2.42;0.40;;;27.00;54.20;;;;;;5048506;28;20051;-50
2022/09/04 11:17:58;;;;;;;3.05;0.40;;;26.90;52.70;;;;;;5048577;28;20526;-50
2022/09/04 11:20:39;;;;;;;2.88;0.30;;;26.60;54.20;;;;;;5048408;28;20137;-48
2022/09/04 11:23:10;;;;;;;2.13;0.50;;;26.50;54.60;;;;;;5046966;28;20455;-52
2022/09/04 11:26:13;;;;;;;1.90;0.30;;;26.60;54.70;;;;;;5047898;28;20056;-49
2022/09/04 11:29:02;;;;;;;1.55;0.30;;;26.70;54.30;;;;;;5048466;28;20052;-51
2022/09/04 11:31:58;;;;;;;1.80;0.50;;;26.70;55.10;;;;;;5048368;28;20052;-52
2022/09/04 11:34:50;;;;;;;2.58;0.40;;;26.80;54.50;;;;;;5049210;28;20107;-49
2022/09/04 11:37:24;;;;;;;;;;;26.80;55.40;;;;;;5049248;28;20052;-47
2022/09/04 11:40:15;;;;;;;2.80;0.50;;;26.60;54.40;;;;;;5048967;28;19927;-48
2022/09/04 11:43:00;;;;;;;1.95;0.50;;;26.60;54.90;;;;;;5049124;28;20053;-49
2022/09/04 11:45:51;;;;;;;1.85;0.40;;;26.60;54.70;;;;;;5049722;28;20120;-47
2022/09/04 11:48:25;;;;;;;1.15;0.38;;;26.60;56.10;;;;;;5049571;28;20084;-48
2022/09/04 11:51:21;;;;;;;1.73;0.30;;;26.60;56.40;;;;;;5049965;28;20111;-47
2022/09/04 11:54:20;;;;;;;3.28;0.40;;;26.50;56.90;;;;;;5049832;28;20073;-50
2022/09/04 11:57:03;;;;;;;3.55;0.40;;;26.50;56.80;;;;;;5049703;28;20037;-48
2022/09/04 11:59:31;;;;;;;2.05;0.55;;;26.40;56.10;;;;;;5048819;28;20082;-52
2022/09/04 12:02:30;;;;;;;1.08;0.43;;;26.40;57.20;;;;;;5047735;28;20045;-50
2022/09/04 12:05:15;;;;;;;1.65;0.30;;;26.30;56.00;;;;;;5046945;28;20182;-51
2022/09/04 12:08:09;;;;;;;3.17;0.60;;;26.30;56.40;;;;;;5048121;28;20112;-51
2022/09/04 12:10:43;;;;;;;1.20;0.35;;;26.20;56.10;;;;;;5047961;28;20045;-52
2022/09/04 12:13:15;;;;;;;2.20;0.50;;;26.20;56.20;;;;;;5047672;28;20045;-49
2022/09/04 12:16:18;;;;;;;2.28;0.40;;;26.20;56.60;;;;;;5047061;28;20049;-51
2022/09/04 12:19:08;;;;;;;2.55;0.55;;;26.20;56.40;;;;;;5047639;28;20053;-47
2022/09/04 12:22:01;;;;;;;3.75;0.50;;;26.30;57.20;;;;;;5047640;28;20049;-50
2022/09/04 12:25:05;;;;;;;2.72;0.52;;;26.40;58.10;;;;;;5047949;28;20127;-47
2022/09/04 12:27:45;;;;;;;2.10;0.45;;;26.50;57.90;;;;;;5043138;28;20045;-51
2022/09/04 12:30:17;;;;;;;4.05;0.70;;;26.50;58.20;;;;;;5047627;28;20394;-48
2022/09/04 12:32:46;;;;;;;4.13;0.50;;;26.50;58.30;;;;;;5047375;28;20129;-49
2022/09/04 12:35:11;;;;;;;3.40;0.50;;;26.50;57.90;;;;;;5047516;28;20041;-52
2022/09/04 12:38:23;;;;;;;0.93;0.28;;;26.40;57.90;;;;;;5047738;28;20517;-50
2022/09/04 12:41:07;;;;;;;2.00;0.57;;;26.30;57.50;;;;;;5046471;28;20393;-49
2022/09/04 12:44:18;;;;;;;2.58;0.40;;;26.30;58.50;;;;;;5047190;28;20727;-51
2022/09/04 12:47:32;;;;;;;0.90;0.22;;;26.40;58.10;;;;;;5038939;28;20061;-47
2022/09/04 12:50:26;;;;;;;1.80;0.43;;;26.30;58.30;;;;;;5045307;28;20135;-50
2022/09/04 12:53:11;;;;;;;2.65;0.40;;;26.40;58.60;;;;;;5047543;28;20107;-47
2022/09/04 12:56:09;;;;;;;1.48;0.40;;;26.40;57.70;;;;;;5047919;28;20045;-52
2022/09/04 12:58:58;;;;;;;1.38;0.50;;;26.50;57.00;;;;;;5047176;28;20450;-49
2022/09/04 13:01:42;;;;;;;5.63;0.75;;;26.40;57.10;;;;;;5047538;28;20460;-48
2022/09/04 13:04:15;;;;;;;1.83;0.60;;;26.40;57.10;;;;;;5047651;28;20045;-51
2022/09/04 13:06:47;;;;;;;3.83;0.70;;;26.30;57.80;;;;;;5047508;28;20106;-51
2022/09/04 13:09:31;;;;;;;1.17;0.45;;;26.30;57.30;;;;;;5047742;28;20049;-49
2022/09/04 13:12:02;;;;;;;1.65;0.43;;;26.20;57.40;;;;;;5047003;28;20051;-47
2022/09/04 13:14:56;;;;;;;3.20;0.60;;;26.20;57.10;;;;;;5047400;28;20048;-50
2022/09/04 13:17:47;;;;;;;3.95;0.32;;;26.20;57.70;;;;;;5047346;28;20443;-45
2022/09/04 13:20:37;;;;;;;2.28;0.50;;;26.20;58.30;;;;;;5047521;28;20101;-46
2022/09/04 13:23:39;;;;;;;4.05;0.60;;;26.10;58.40;;;;;;5047061;28;20482;-49
2022/09/04 13:27:02;;;;;;;2.67;0.30;;;26.10;58.60;;;;;;5047103;28;20545;-49
2022/09/04 13:30:01;;;;;;;2.15;0.45;;;26.10;58.70;;;;;;5024450;28;20098;-48
2022/09/04 13:32:52;;;;;;;2.03;1.02;;;26.00;59.20;;;;;;5024173;28;20040;-47
2022/09/04 13:35:58;;;;;;;2.95;0.50;;;26.00;58.40;;;;;;5044099;28;20052;-47
2022/09/04 13:38:36;;;;;;;2.30;0.47;;;26.00;58.60;;;;;;5047454;28;20463;-48
2022/09/04 13:41:29;;;;;;;3.03;0.32;;;25.90;58.80;;;;;;5047516;28;20082;-47
2022/09/04 13:44:37;;;;;;;3.05;0.47;;;25.90;58.60;;;;;;5047508;28;20120;-49
2022/09/04 13:47:22;;;;;;;2.25;0.30;;;25.80;58.80;;;;;;5047271;28;20048;-51
2022/09/04 13:50:16;;;;;;;2.03;0.40;;;25.80;59.80;;;;;;5046919;28;20089;-48
2022/09/04 13:52:58;;;;;;;2.85;0.50;;;25.90;59.50;;;;;;5047446;28;20069;-49
2022/09/04 13:55:41;;;;;;;2.83;0.60;;;25.80;59.40;;;;;;5047570;28;20037;-48
2022/09/04 13:58:21;;;;;;;2.90;0.63;;;25.80;59.30;;;;;;5047100;28;20044;-47
2022/09/04 14:00:58;;;;;;;3.60;0.50;;;25.80;59.60;;;;;;5046793;28;20424;-48
2022/09/04 14:03:37;;;;;;;1.10;0.40;;;25.70;59.70;;;;;;5046948;28;20041;-51
2022/09/04 14:06:06;;;;;;;1.75;0.50;;;25.70;59.70;;;;;;5049128;28;20140;-48
2022/09/04 14:08:35;;;;;;;2.90;0.40;;;25.70;59.80;;;;;;5051050;28;20136;-51
2022/09/04 14:11:10;;;;;;;1.60;0.50;;;25.60;59.30;;;;;;5050235;28;20513;-48
2022/09/04 14:13:54;;;;;;;2.10;0.63;;;25.60;59.90;;;;;;5050875;28;20115;-50
2022/09/04 14:16:22;;;;;;;2.67;0.63;;;25.60;61.10;;;;;;5050236;28;20152;-47
2022/09/04 14:19:08;;;;;;;1.50;0.50;;;25.60;60.40;;;;;;5050005;28;20391;-49
2022/09/04 14:21:37;;;;;;;2.40;0.50;;;25.60;60.40;;;;;;5049107;28;20055;-50
2022/09/04 14:24:16;;;;;;;2.00;0.50;;;25.60;59.90;;;;;;5048901;28;20045;-51
2022/09/04 14:26:51;;;;;;;2.22;0.68;;;25.50;60.10;;;;;;5048819;28;20495;-51